WetterOnline ( http://www.wetteronline.de )

Wetter aktuell Oeverdiek, Neuhof, Timmendorfer Strand

Aktuelles Wetter: Dörnick (28m)

6-stündlich | Neueste Meldungen
Ortszeit Temperatur Wetter
So, 27.05. 14:00 16.2° C bewölkt
So, 27.05. 8:00 15.1° C bewölkt
So, 27.05. 2:00 14.2° C wolkenlos
Sa, 26.05. 20:00 20.4° C bewölkt
Sa, 26.05. 14:00 22.8° C wolkenlos
Sa, 26.05. 8:00 14.7° C wolkenlos
Sa, 26.05. 2:00 11.3° C wolkenlos
Fr, 25.05. 20:00 17.5° C leicht bewölkt
Ortszeit Temperatur Wetter
So, 27.05. 15:30 17.2° C bedeckt
So, 27.05. 15:20 17.2° C bedeckt
So, 27.05. 15:10 16.9° C bewölkt
So, 27.05. 15:00 16.8° C bedeckt
So, 27.05. 14:50 16.8° C bedeckt
So, 27.05. 14:40 16.8° C bewölkt
So, 27.05. 14:30 16.3° C bewölkt
So, 27.05. 14:00 16.2° C bewölkt
So, 27.05. 13:30 16.4° C bewölkt
So, 27.05. 13:00 16.4° C bewölkt
So, 27.05. 12:30 16.9° C bewölkt
Ortszeit Relative Feuchte Sichtweite
So, 27.05. 14:00 86% -
So, 27.05. 8:00 90% 16 km
So, 27.05. 2:00 90% 7 km
Sa, 26.05. 20:00 67% 30 km
Sa, 26.05. 14:00 57% 5.0 km
Sa, 26.05. 8:00 86% 8 km
Sa, 26.05. 2:00 95% 5.0 km
Fr, 25.05. 20:00 45% 65 km
Ortszeit Relative Feuchte Sichtweite
So, 27.05. 15:30 81% 17 km
So, 27.05. 15:20 81% -
So, 27.05. 15:10 82% -
So, 27.05. 15:00 82% 12 km
So, 27.05. 14:50 82% -
So, 27.05. 14:40 82% -
So, 27.05. 14:30 85% 12 km
So, 27.05. 14:00 86% -
So, 27.05. 13:30 85% 11 km
So, 27.05. 13:00 85% 13 km
So, 27.05. 12:30 82% 19 km
Ortszeit Niederschlagsmenge Niederschlagsart
So, 27.05. 14:00 0.1 l/m2 in 6 Std. Nebel
So, 27.05. 8:00 0.0 l/m2 in 12 Std. -
So, 27.05. 2:00 0.0 l/m2 in 6 Std. -
Sa, 26.05. 20:00 0.0 l/m2 in 12 Std. -
Sa, 26.05. 14:00 0.0 l/m2 in 6 Std. -
Sa, 26.05. 8:00 0.0 l/m2 in 12 Std. -
Sa, 26.05. 2:00 0.0 l/m2 in 6 Std. -
Fr, 25.05. 20:00 0.0 l/m2 in 12 Std. -
Ortszeit Niederschlagsmenge Niederschlagsart
So, 27.05. 15:30 0.0 l/m2 in 1 Std. -
So, 27.05. 15:20 keine Meldung -
So, 27.05. 15:10 keine Meldung -
So, 27.05. 15:00 0.0 l/m2 in 1 Std. -
So, 27.05. 14:50 keine Meldung -
So, 27.05. 14:40 keine Meldung -
So, 27.05. 14:30 0.0 l/m2 in 1 Std. -
So, 27.05. 14:00 0.0 l/m2 in 1 Std. Nebel
So, 27.05. 13:30 0.0 l/m2 in 1 Std. -
So, 27.05. 13:00 0.0 l/m2 in 1 Std. -
So, 27.05. 12:30 0.0 l/m2 in 1 Std. -
Ortszeit Stärke Spitze Richtung
km/h Bft. km/h Grad Sektor
So, 27.05. 14:00 13 3 28 60° NO
So, 27.05. 8:00 14 3 32 50° NO
So, 27.05. 2:00 11 2 22 40° NO
Sa, 26.05. 20:00 13 3 37 40° NO
Sa, 26.05. 14:00 17 3 30 40° NO
Sa, 26.05. 8:00 7 2 14 80° O
Sa, 26.05. 2:00 4 1 22 40° NO
Fr, 25.05. 20:00 13 3 39 60° NO
Ortszeit Stärke Spitze Richtung
km/h Bft. km/h Grad Sektor
So, 27.05. 15:30 13 3 30 40° NO
So, 27.05. 15:20 13 3 - 40° NO
So, 27.05. 15:10 15 3 - 40° NO
So, 27.05. 15:00 17 3 24 40° NO
So, 27.05. 14:50 17 3 - 40° NO
So, 27.05. 14:40 15 3 - 50° NO
So, 27.05. 14:30 15 3 24 30° NO
So, 27.05. 14:00 13 3 24 60° NO
So, 27.05. 13:30 13 3 24 50° NO
So, 27.05. 13:00 17 3 26 60° NO
So, 27.05. 12:30 13 3 24 80° O
Ortszeit Untergrenze Bedeckung Gattung
total tief tief mittel hoch
So, 27.05. 14:00 210 m 7/8 7/8 - - -
So, 27.05. 8:00 150 m 7/8 7/8 - - -
So, 27.05. 2:00 4200 m 0/8 0/8 - - -
Sa, 26.05. 20:00 6300 m 8/8 5/8 - - -
Sa, 26.05. 14:00 - 0/8 0/8 - - -
Sa, 26.05. 8:00 - 0/8 0/8 - - -
Sa, 26.05. 2:00 - 0/8 0/8 - - -
Fr, 25.05. 20:00 7500 m 3/8 0/8 - - -
Ortszeit Bedeckungsgrad in Achtel und Wolkenuntergrenze
So, 27.05. 15:30 8(300m)
So, 27.05. 15:20 8(300m)
So, 27.05. 15:10 7(270m)
So, 27.05. 15:00 8(270m)
So, 27.05. 14:50 8(270m)
So, 27.05. 14:40 7(270m)
So, 27.05. 14:30 7(240m)
So, 27.05. 14:00 7(210m)
So, 27.05. 13:30 7(240m)
So, 27.05. 13:00 7(300m)
So, 27.05. 12:30 7(330m)
Ortszeit Luftdruck NN (hPa) Tendenz (hPa in 3 Std.)
So, 27.05. 14:00 1024 - 0,3
So, 27.05. 8:00 1024 - 0,1
So, 27.05. 2:00 1024 - 0,3
Sa, 26.05. 20:00 1024 - 0,3
Sa, 26.05. 14:00 1024 0,0
Sa, 26.05. 8:00 1024 + 0,4
Sa, 26.05. 2:00 1024 + 0,2
Fr, 25.05. 20:00 1023 - 0,5
Ortszeit Luftdruck NN (hPa) Tendenz (hPa in 3 Std.)
So, 27.05. 15:30 1023 - 1,3
So, 27.05. 15:20 1023 keine Meldung
So, 27.05. 15:10 1023 keine Meldung
So, 27.05. 15:00 1023 - 0,8
So, 27.05. 14:50 1023 keine Meldung
So, 27.05. 14:40 1023 keine Meldung
So, 27.05. 14:30 1023 - 0,5
So, 27.05. 14:00 1024 - 0,3
So, 27.05. 13:30 1024 0,0
So, 27.05. 13:00 1024 + 0,2
So, 27.05. 12:30 1024 + 0,5
Ortszeit Schneehöhe (cm)
So, 27.05. 14:00 -
So, 27.05. 8:00 -
So, 27.05. 2:00 -
Sa, 26.05. 20:00 -
Sa, 26.05. 14:00 -
Sa, 26.05. 8:00 -
Sa, 26.05. 2:00 -
Fr, 25.05. 20:00 -
Ortszeit Schneehöhe (cm)
So, 27.05. 15:30 -
So, 27.05. 15:20 -
So, 27.05. 15:10 -
So, 27.05. 15:00 -
So, 27.05. 14:50 -
So, 27.05. 14:40 -
So, 27.05. 14:30 -
So, 27.05. 14:00 -
So, 27.05. 13:30 -
So, 27.05. 13:00 -
So, 27.05. 12:30 -
Link zu dieser Seite / Seite empfehlen

Das Wetter in ...